createdAt,value
2018-04-12T00:01:20.232Z,13.50
2018-04-12T00:03:46.300Z,13.50
2018-04-12T00:06:12.485Z,13.40
2018-04-12T00:08:38.589Z,13.40
2018-04-12T00:11:05.421Z,13.40
2018-04-12T00:13:32.256Z,13.40
2018-04-12T00:15:58.322Z,13.40
2018-04-12T00:18:24.393Z,13.40
2018-04-12T00:20:50.458Z,13.40
2018-04-12T00:23:16.535Z,13.30
2018-04-12T00:25:42.625Z,13.60
2018-04-12T00:28:08.716Z,13.40
2018-04-12T00:30:35.573Z,13.30
2018-04-12T00:33:01.637Z,13.20
2018-04-12T00:35:28.473Z,13.30
2018-04-12T00:37:54.564Z,13.60
2018-04-12T00:40:20.640Z,13.30
2018-04-12T00:42:47.461Z,13.20
2018-04-12T00:45:13.536Z,13.30
2018-04-12T00:47:39.717Z,13.50
2018-04-12T00:50:05.876Z,13.50
2018-04-12T00:52:31.960Z,13.20
2018-04-12T00:54:58.049Z,13.10
2018-04-12T00:57:24.136Z,13.30
2018-04-12T00:59:50.212Z,13.20
2018-04-12T01:02:16.316Z,13.20
2018-04-12T01:04:42.440Z,13.90
2018-04-12T01:07:08.631Z,13.00
2018-04-12T01:09:34.753Z,13.00
2018-04-12T01:12:00.885Z,13.40
2018-04-12T01:14:27.017Z,13.90
2018-04-12T01:16:53.121Z,12.90
2018-04-12T01:19:19.205Z,12.90
2018-04-12T01:21:45.576Z,12.90
2018-04-12T01:24:12.428Z,12.80
2018-04-12T01:26:39.269Z,12.80
2018-04-12T01:29:05.369Z,13.10
2018-04-12T01:31:31.473Z,12.20
2018-04-12T01:33:58.320Z,12.70
2018-04-12T01:36:24.397Z,12.70
2018-04-12T01:38:50.461Z,12.70
2018-04-12T01:41:16.532Z,12.70
2018-04-12T01:43:42.641Z,12.80
2018-04-12T01:46:08.733Z,12.70
2018-04-12T01:48:34.874Z,12.90
2018-04-12T01:51:01.773Z,12.60
2018-04-12T01:53:27.913Z,12.50
2018-04-12T01:55:53.972Z,12.90
2018-04-12T01:58:20.778Z,12.50
2018-04-12T02:00:46.840Z,12.50
2018-04-12T02:03:12.940Z,12.60
2018-04-12T02:05:39.076Z,12.50
2018-04-12T02:08:05.195Z,12.50
2018-04-12T02:10:31.282Z,12.50
2018-04-12T02:12:57.374Z,12.40
2018-04-12T02:15:23.452Z,12.40
2018-04-12T02:17:49.525Z,12.40
2018-04-12T02:20:16.329Z,12.40
2018-04-12T02:22:42.462Z,12.40
2018-04-12T02:25:08.555Z,12.50
2018-04-12T02:27:34.655Z,12.40
2018-04-12T02:30:00.756Z,12.30
2018-04-12T02:32:26.844Z,12.30
2018-04-12T02:34:53.654Z,12.40
2018-04-12T02:37:19.733Z,12.40
2018-04-12T02:39:45.792Z,12.30
2018-04-12T02:42:11.885Z,12.30
2018-04-12T02:44:37.985Z,12.30
2018-04-12T02:47:04.053Z,12.20
2018-04-12T02:49:30.105Z,12.20
2018-04-12T02:51:56.177Z,12.20
2018-04-12T02:54:22.249Z,12.20
2018-04-12T02:56:48.305Z,12.20
2018-04-12T02:59:14.398Z,11.90
2018-04-12T03:01:40.558Z,12.10
2018-04-12T03:04:06.701Z,12.00
2018-04-12T03:06:32.765Z,12.10
2018-04-12T03:08:58.825Z,12.00
2018-04-12T03:11:25.623Z,12.00
2018-04-12T03:13:51.712Z,12.00
2018-04-12T03:16:18.533Z,12.00
2018-04-12T03:18:44.590Z,11.90
2018-04-12T03:21:11.492Z,12.00
2018-04-12T03:23:37.570Z,11.90
2018-04-12T03:26:03.633Z,11.90
2018-04-12T03:28:30.487Z,11.90
2018-04-12T03:30:57.308Z,11.90
2018-04-12T03:33:23.404Z,11.90
2018-04-12T03:35:49.477Z,11.90
2018-04-12T03:38:15.560Z,11.80
2018-04-12T03:40:42.380Z,11.70
2018-04-12T03:43:08.557Z,11.70
2018-04-12T03:45:35.310Z,11.70
2018-04-12T03:48:01.409Z,11.70
2018-04-12T03:50:27.561Z,12.50
2018-04-12T03:52:53.592Z,11.60
2018-04-12T03:55:20.416Z,11.50
2018-04-12T03:57:46.508Z,11.50
2018-04-12T04:00:12.598Z,11.90
2018-04-12T04:02:38.741Z,11.60
2018-04-12T04:05:05.599Z,11.60
2018-04-12T04:07:31.676Z,11.60
2018-04-12T04:09:57.768Z,11.60
2018-04-12T04:12:23.857Z,11.60
2018-04-12T04:18:01.297Z,11.60
2018-04-12T04:20:39.801Z,11.50
2018-04-12T04:23:06.238Z,11.50
2018-04-12T04:25:33.290Z,11.50
2018-04-12T04:27:59.556Z,11.40
2018-04-12T04:30:26.652Z,11.40
2018-04-12T04:32:52.982Z,11.40
2018-04-12T04:35:19.290Z,11.30
2018-04-12T04:37:45.526Z,11.40
2018-04-12T04:40:11.841Z,11.50
2018-04-12T04:42:38.245Z,11.20
2018-04-12T04:45:05.193Z,11.40
2018-04-12T04:47:31.708Z,11.30
2018-04-12T04:49:58.715Z,11.30
2018-04-12T04:52:25.013Z,11.30
2018-04-12T04:54:51.305Z,11.30
2018-04-12T04:57:17.544Z,11.30
2018-04-12T04:59:43.824Z,11.20
2018-04-12T05:02:11.014Z,11.20
2018-04-12T05:04:38.145Z,11.20
2018-04-12T05:07:04.467Z,11.20
2018-04-12T05:09:38.003Z,11.20
2018-04-12T05:12:05.227Z,11.20
2018-04-12T05:14:31.445Z,11.20
2018-04-12T05:17:04.048Z,11.10
2018-04-12T05:19:30.155Z,11.10
2018-04-12T05:21:56.388Z,11.20
2018-04-12T05:24:22.466Z,11.20
2018-04-12T05:26:48.651Z,11.20
2018-04-12T05:29:14.758Z,11.20
2018-04-12T05:31:40.941Z,11.20
2018-04-12T05:34:07.235Z,11.20
2018-04-12T05:36:34.085Z,11.20
2018-04-12T05:39:02.252Z,11.20
2018-04-12T05:41:35.709Z,11.30
2018-04-12T05:44:01.954Z,11.30
2018-04-12T05:46:28.113Z,11.40
2018-04-12T05:48:56.195Z,11.40
2018-04-12T05:51:37.672Z,11.40
2018-04-12T05:54:03.733Z,11.40
2018-04-12T05:56:36.025Z,11.50
2018-04-12T05:59:04.204Z,11.50
2018-04-12T06:01:32.100Z,11.50
2018-04-12T06:03:58.209Z,11.50
2018-04-12T06:06:26.360Z,11.60
2018-04-12T06:08:52.589Z,11.80
2018-04-12T06:11:18.665Z,11.80
2018-04-12T06:13:45.557Z,11.80
2018-04-12T06:16:11.701Z,11.80
2018-04-12T06:18:38.632Z,11.90
2018-04-12T06:21:04.719Z,11.80
2018-04-12T06:23:30.829Z,11.90
2018-04-12T06:25:56.941Z,12.10
2018-04-12T06:28:35.144Z,12.20
2018-04-12T06:31:01.267Z,12.20
2018-04-12T06:33:27.333Z,12.20
2018-04-12T06:35:54.185Z,12.40
2018-04-12T06:38:21.025Z,12.50
2018-04-12T06:40:47.867Z,12.50
2018-04-12T06:43:13.941Z,12.50
2018-04-12T06:45:40.132Z,12.60
2018-04-12T06:48:07.079Z,12.60
2018-04-12T06:50:33.240Z,12.70
2018-04-12T06:52:59.410Z,12.70
2018-04-12T06:55:26.230Z,12.60
2018-04-12T06:57:52.292Z,12.90
2018-04-12T07:00:28.015Z,12.70
2018-04-12T07:02:56.132Z,12.80
2018-04-12T07:05:23.181Z,12.90
2018-04-12T07:07:50.192Z,13.10
2018-04-12T07:10:16.456Z,13.00
2018-04-12T07:12:42.724Z,13.10
2018-04-12T07:15:09.071Z,13.20
2018-04-12T07:17:36.221Z,13.30
2018-04-12T07:20:02.501Z,13.30
2018-04-12T07:22:28.778Z,13.30
2018-04-12T07:24:56.100Z,13.30
2018-04-12T07:27:22.357Z,13.30
2018-04-12T07:29:49.357Z,13.30
2018-04-12T07:32:15.604Z,13.30
2018-04-12T07:34:42.679Z,13.20
2018-04-12T07:37:09.119Z,13.20
2018-04-12T07:39:36.322Z,13.30
2018-04-12T07:42:02.663Z,13.20
2018-04-12T07:44:28.965Z,13.50
2018-04-12T07:46:55.255Z,13.40
2018-04-12T07:49:21.601Z,13.70
2018-04-12T07:51:47.920Z,14.10
2018-04-12T07:54:14.256Z,13.10
2018-04-12T07:56:40.646Z,13.50
2018-04-12T07:59:07.227Z,13.20
2018-04-12T08:01:33.590Z,13.60
2018-04-12T08:04:04.004Z,13.50
2018-04-12T08:06:31.357Z,13.70
2018-04-12T08:08:58.725Z,13.70
2018-04-12T08:11:25.059Z,13.80
2018-04-12T08:13:51.337Z,14.50
2018-04-12T08:16:17.762Z,14.10
2018-04-12T08:18:47.875Z,13.90
2018-04-12T08:21:16.574Z,13.90
2018-04-12T08:23:42.893Z,13.90
2018-04-12T08:26:10.009Z,13.80
2018-04-12T08:28:36.396Z,13.70
2018-04-12T08:31:02.704Z,13.00
2018-04-12T08:33:32.557Z,13.70
2018-04-12T08:35:59.610Z,13.80
2018-04-12T08:38:26.692Z,13.90
2018-04-12T08:40:53.680Z,13.90
2018-04-12T08:43:19.986Z,13.90
2018-04-12T08:45:47.000Z,14.00
2018-04-12T08:48:17.255Z,13.80
2018-04-12T08:50:43.562Z,14.10
2018-04-12T08:53:09.950Z,14.20
2018-04-12T08:55:37.080Z,14.30
2018-04-12T08:58:03.378Z,14.30
2018-04-12T09:00:30.394Z,14.40
2018-04-12T09:02:56.773Z,14.40
2018-04-12T09:05:23.796Z,14.50
2018-04-12T09:07:50.061Z,14.50
2018-04-12T09:10:16.313Z,14.30
2018-04-12T09:12:42.654Z,14.40
2018-04-12T09:15:08.968Z,14.50
2018-04-12T09:17:35.381Z,14.50
2018-04-12T09:20:02.461Z,14.60
2018-04-12T09:22:28.862Z,14.50
2018-04-12T09:24:55.413Z,14.60
2018-04-12T09:27:22.477Z,14.70
2018-04-12T09:29:49.484Z,14.80
2018-04-12T09:32:15.741Z,14.80
2018-04-12T09:34:42.032Z,14.80
2018-04-12T09:37:08.445Z,14.90
2018-04-12T09:39:34.791Z,15.00
2018-04-12T09:42:01.113Z,15.00
2018-04-12T09:44:27.405Z,15.30
2018-04-12T09:46:53.734Z,15.10
2018-04-12T09:49:20.005Z,15.20
2018-04-12T09:51:46.276Z,15.10
2018-04-12T09:54:12.530Z,15.20
2018-04-12T09:56:39.618Z,15.10
2018-04-12T09:59:05.990Z,15.10
2018-04-12T10:01:38.471Z,15.30
2018-04-12T10:04:04.811Z,15.20
2018-04-12T10:06:38.177Z,15.30
2018-04-12T10:09:10.831Z,15.50
2018-04-12T10:11:37.198Z,15.80
2018-04-12T10:14:03.636Z,16.00
2018-04-12T10:16:30.685Z,16.30
2018-04-12T10:18:56.977Z,16.10
2018-04-12T10:21:23.283Z,16.40
2018-04-12T10:23:49.571Z,16.40
2018-04-12T10:26:15.867Z,16.60
2018-04-12T10:28:43.239Z,17.10
2018-04-12T10:31:12.048Z,16.70
2018-04-12T10:33:38.340Z,16.90
2018-04-12T10:36:04.628Z,16.80
2018-04-12T10:38:31.062Z,16.60
2018-04-12T10:40:57.423Z,16.70
2018-04-12T10:43:23.738Z,16.90
2018-04-12T10:45:50.056Z,16.60
2018-04-12T10:48:16.436Z,16.50
2018-04-12T10:50:42.736Z,16.70
2018-04-12T10:53:09.095Z,17.60
2018-04-12T10:55:35.385Z,16.80
2018-04-12T10:58:01.723Z,16.80
2018-04-12T11:00:28.981Z,16.90
2018-04-12T11:02:56.837Z,17.00
2018-04-12T11:05:23.929Z,17.10
2018-04-12T11:07:50.944Z,17.10
2018-04-12T11:10:17.227Z,17.00
2018-04-12T11:12:44.233Z,17.00
2018-04-12T11:15:10.518Z,17.00
2018-04-12T11:17:36.806Z,17.00
2018-04-12T11:20:03.078Z,17.20
2018-04-12T11:22:29.425Z,17.30
2018-04-12T11:24:55.577Z,17.50
2018-04-12T11:27:21.766Z,17.50
2018-04-12T11:29:48.000Z,17.60
2018-04-12T11:32:14.198Z,17.80
2018-04-12T11:34:41.020Z,17.90
2018-04-12T11:37:07.089Z,17.90
2018-04-12T11:39:33.914Z,17.90
2018-04-12T11:42:00.070Z,17.90
2018-04-12T11:44:27.057Z,17.90
2018-04-12T11:46:53.906Z,18.00
2018-04-12T11:49:23.883Z,18.00
2018-04-12T11:51:51.019Z,18.20
2018-04-12T11:54:17.337Z,18.10
2018-04-12T11:56:44.345Z,18.30
2018-04-12T11:59:10.420Z,18.30
2018-04-12T12:01:36.492Z,18.60
2018-04-12T12:04:02.545Z,18.40
2018-04-12T12:06:33.806Z,18.50
2018-04-12T12:09:00.025Z,18.60
2018-04-12T12:11:26.195Z,19.20
2018-04-12T12:13:52.417Z,19.10
2018-04-12T12:16:19.325Z,19.50
2018-04-12T12:18:45.540Z,19.60
2018-04-12T12:21:11.642Z,19.60
2018-04-12T12:23:39.860Z,20.20
2018-04-12T12:26:06.683Z,20.10
2018-04-12T12:28:33.507Z,20.10
2018-04-12T12:30:59.805Z,20.10
2018-04-12T12:33:26.029Z,20.20
2018-04-12T12:35:52.173Z,20.70
2018-04-12T12:38:18.292Z,21.20
2018-04-12T12:40:45.230Z,20.50
2018-04-12T12:43:14.554Z,20.40
2018-04-12T12:45:40.958Z,20.60
2018-04-12T12:48:07.263Z,20.70
2018-04-12T12:50:34.305Z,20.90
2018-04-12T12:53:00.733Z,20.90
2018-04-12T12:55:27.105Z,21.00
2018-04-12T12:57:53.428Z,21.00
2018-04-12T13:00:24.093Z,21.10
2018-04-12T13:02:50.386Z,21.20
2018-04-12T13:05:16.709Z,21.20
2018-04-12T13:07:43.021Z,21.30
2018-04-12T13:10:09.312Z,21.50
2018-04-12T13:12:35.620Z,21.70
2018-04-12T13:15:01.921Z,21.70
2018-04-12T13:17:30.697Z,21.70
2018-04-12T13:19:57.068Z,21.80
2018-04-12T13:22:24.125Z,21.90
2018-04-12T13:24:50.437Z,21.80
2018-04-12T13:27:16.784Z,21.80
2018-04-12T13:29:43.045Z,21.90
2018-04-12T13:32:09.316Z,21.80
2018-04-12T13:34:36.473Z,21.80
2018-04-12T13:37:02.777Z,21.50
2018-04-12T13:39:29.145Z,22.10
2018-04-12T13:41:55.473Z,22.00
2018-04-12T13:44:21.789Z,22.20
2018-04-12T13:46:48.856Z,22.30
2018-04-12T13:49:15.912Z,22.40
2018-04-12T13:51:43.271Z,22.10
2018-04-12T13:54:09.617Z,22.10
2018-04-12T13:56:35.966Z,22.50
2018-04-12T13:59:02.220Z,22.60
2018-04-12T14:01:28.641Z,22.20
2018-04-12T14:03:54.989Z,22.60
2018-04-12T14:06:21.371Z,22.60
2018-04-12T14:08:47.666Z,22.70
2018-04-12T14:11:13.975Z,22.70
2018-04-12T14:13:40.307Z,22.60
2018-04-12T14:16:06.934Z,22.60
2018-04-12T14:18:33.191Z,22.60
2018-04-12T14:20:59.683Z,23.10
2018-04-12T14:23:26.167Z,22.60
2018-04-12T14:25:52.523Z,22.70
2018-04-12T14:28:22.249Z,22.70
2018-04-12T14:30:48.530Z,22.80
2018-04-12T14:33:15.565Z,22.90
2018-04-12T14:35:41.867Z,22.70
2018-04-12T14:38:08.141Z,23.00
2018-04-12T14:40:34.441Z,23.10
2018-04-12T14:43:06.216Z,22.90
2018-04-12T14:45:32.531Z,22.90
2018-04-12T14:47:58.929Z,22.90
2018-04-12T14:50:26.517Z,23.10
2018-04-12T14:52:53.560Z,22.70
2018-04-12T14:55:19.809Z,22.70
2018-04-12T14:57:46.186Z,22.80
2018-04-12T15:00:15.922Z,22.90
2018-04-12T15:02:42.194Z,22.90
2018-04-12T15:05:09.220Z,23.00
2018-04-12T15:07:36.315Z,23.00
2018-04-12T15:10:02.612Z,22.90
2018-04-12T15:12:28.988Z,22.90
2018-04-12T15:14:55.317Z,23.10
2018-04-12T15:17:29.282Z,22.80
2018-04-12T15:19:55.668Z,22.80
2018-04-12T15:22:22.030Z,22.60
2018-04-12T15:24:48.359Z,22.50
2018-04-12T15:27:14.723Z,22.00
2018-04-12T15:29:41.097Z,22.20
2018-04-12T15:32:08.170Z,21.90
2018-04-12T15:34:35.190Z,21.80
2018-04-12T15:37:01.667Z,21.70
2018-04-12T15:39:28.098Z,21.60
2018-04-12T15:41:54.442Z,21.50
2018-04-12T15:44:20.897Z,21.40
2018-04-12T15:46:47.307Z,21.40
2018-04-12T15:49:13.621Z,21.40
2018-04-12T15:51:40.729Z,21.40
2018-04-12T15:54:07.778Z,21.60
2018-04-12T15:56:34.872Z,21.30
2018-04-12T15:59:01.293Z,21.30
2018-04-12T16:01:27.704Z,21.30
2018-04-12T16:03:54.002Z,21.30
2018-04-12T16:06:20.286Z,21.20
2018-04-12T16:08:46.642Z,21.20
2018-04-12T16:11:12.947Z,21.10
2018-04-12T16:13:39.949Z,21.00
2018-04-12T16:16:08.388Z,20.90
2018-04-12T16:18:34.785Z,20.90
2018-04-12T16:21:01.218Z,20.60
2018-04-12T16:23:27.631Z,20.70
2018-04-12T16:25:53.996Z,20.60
2018-04-12T16:28:20.361Z,20.80
2018-04-12T16:30:46.677Z,20.60
2018-04-12T16:33:15.902Z,20.40
2018-04-12T16:35:42.192Z,20.30
2018-04-12T16:38:09.224Z,20.20
2018-04-12T16:40:35.484Z,20.60
2018-04-12T16:43:01.845Z,20.10
2018-04-12T16:45:28.916Z,20.10
2018-04-12T16:47:55.201Z,20.10
2018-04-12T16:50:24.793Z,20.00
2018-04-12T16:52:51.092Z,20.00
2018-04-12T16:55:17.446Z,20.30
2018-04-12T16:57:43.781Z,19.80
2018-04-12T17:00:10.041Z,20.20
2018-04-12T17:02:36.261Z,19.80
2018-04-12T17:05:02.529Z,19.80
2018-04-12T17:07:29.642Z,19.70
2018-04-12T17:09:56.933Z,19.70
2018-04-12T17:12:25.345Z,19.70
2018-04-12T17:14:53.413Z,20.00
2018-04-12T17:17:19.704Z,19.70
2018-04-12T17:19:45.987Z,19.60
2018-04-12T17:22:12.257Z,19.50
2018-04-12T17:24:38.502Z,19.60
2018-04-12T17:27:04.773Z,19.50
2018-04-12T17:29:31.174Z,19.50
2018-04-12T17:31:58.369Z,19.40
2018-04-12T17:34:29.714Z,19.90
2018-04-12T17:36:56.163Z,19.30
2018-04-12T17:39:22.549Z,19.60
2018-04-12T17:41:49.283Z,19.40
2018-04-12T17:44:16.520Z,19.10
2018-04-12T17:46:44.427Z,19.10
2018-04-12T17:49:13.909Z,19.10
2018-04-12T17:51:40.960Z,19.00
2018-04-12T17:54:07.638Z,18.50
2018-04-12T17:56:35.106Z,19.30
2018-04-12T17:59:03.014Z,18.90
2018-04-12T18:01:29.512Z,18.70
2018-04-12T18:03:55.999Z,18.60
2018-04-12T18:06:22.636Z,18.80
2018-04-12T18:08:48.932Z,18.90
2018-04-12T18:11:15.281Z,18.90
2018-04-12T18:13:41.577Z,18.70
2018-04-12T18:16:08.892Z,18.60
2018-04-12T18:18:35.205Z,18.60
2018-04-12T18:21:02.321Z,18.50
2018-04-12T18:23:28.824Z,18.20
2018-04-12T18:25:55.140Z,18.40
2018-04-12T18:28:21.476Z,18.70
2018-04-12T18:30:47.839Z,18.40
2018-04-12T18:33:14.205Z,18.30
2018-04-12T18:35:41.481Z,18.30
2018-04-12T18:38:07.779Z,18.20
2018-04-12T18:40:34.843Z,18.10
2018-04-12T18:43:01.195Z,18.00
2018-04-12T18:45:27.705Z,18.00
2018-04-12T18:47:54.025Z,18.00
2018-04-12T18:50:21.283Z,17.90
2018-04-12T18:52:48.532Z,17.90
2018-04-12T18:55:17.338Z,17.80
2018-04-12T18:57:43.761Z,17.70
2018-04-12T19:00:11.054Z,17.70
2018-04-12T19:02:37.444Z,17.80
2018-04-12T19:05:04.470Z,17.60
2018-04-12T19:07:31.673Z,17.50
2018-04-12T19:09:58.110Z,17.50
2018-04-12T19:12:25.257Z,17.40
2018-04-12T19:14:52.468Z,17.30
2018-04-12T19:17:19.532Z,17.30
2018-04-12T19:19:47.232Z,17.60
2018-04-12T19:22:13.429Z,17.70
2018-04-12T19:24:39.717Z,17.20
2018-04-12T19:27:06.760Z,17.00
2018-04-12T19:29:32.861Z,17.00
2018-04-12T19:31:59.142Z,17.00
2018-04-12T19:34:25.372Z,16.90
2018-04-12T19:36:54.502Z,16.80
2018-04-12T19:39:21.342Z,16.80
2018-04-12T19:41:48.187Z,16.80
2018-04-12T19:44:15.645Z,16.80
2018-04-12T19:46:42.254Z,16.70
2018-04-12T19:49:08.429Z,16.70
2018-04-12T19:51:35.606Z,16.40
2018-04-12T19:54:02.893Z,16.60
2018-04-12T19:56:29.130Z,16.60
2018-04-12T19:58:56.038Z,16.50
2018-04-12T20:01:22.976Z,16.40
2018-04-12T20:03:50.585Z,16.50
2018-04-12T20:06:16.866Z,16.50
2018-04-12T20:08:44.046Z,16.50
2018-04-12T20:11:10.886Z,16.50
2018-04-12T20:13:36.977Z,16.60
2018-04-12T20:16:03.930Z,16.40
2018-04-12T20:18:30.190Z,16.40
2018-04-12T20:20:57.418Z,16.40
2018-04-12T20:23:23.545Z,16.90
2018-04-12T20:25:50.014Z,16.40
2018-04-12T20:28:16.147Z,16.40
2018-04-12T20:30:42.275Z,16.50
2018-04-12T20:33:08.455Z,16.90
2018-04-12T20:35:34.552Z,16.30
2018-04-12T20:38:00.720Z,16.30
2018-04-12T20:40:28.385Z,16.40
2018-04-12T20:42:55.263Z,16.30
2018-04-12T20:45:22.104Z,16.30
2018-04-12T20:47:48.394Z,16.60
2018-04-12T20:50:14.522Z,16.10
2018-04-12T20:52:40.793Z,16.40
2018-04-12T20:55:06.892Z,16.20
2018-04-12T20:57:33.050Z,16.20
2018-04-12T20:59:59.282Z,16.40
2018-04-12T21:02:26.402Z,16.00
2018-04-12T21:04:53.636Z,16.00
2018-04-12T21:07:22.981Z,16.00
2018-04-12T21:09:49.272Z,15.90
2018-04-12T21:12:17.464Z,15.90
2018-04-12T21:14:43.547Z,15.90
2018-04-12T21:17:09.936Z,15.90
2018-04-12T21:19:36.006Z,15.80
2018-04-12T21:22:02.071Z,15.40
2018-04-12T21:24:28.194Z,15.70
2018-04-12T21:26:54.313Z,15.70
2018-04-12T21:29:20.413Z,16.00
2018-04-12T21:31:46.537Z,15.70
2018-04-12T21:34:13.372Z,15.60
2018-04-12T21:36:39.478Z,15.60
2018-04-12T21:39:05.629Z,15.50
2018-04-12T21:41:31.752Z,15.50
2018-04-12T21:43:57.959Z,16.20
2018-04-12T21:46:24.845Z,15.40
2018-04-12T21:48:56.445Z,15.40
2018-04-12T21:51:22.549Z,15.40
2018-04-12T21:53:48.648Z,15.70
2018-04-12T21:56:15.550Z,15.20
2018-04-12T21:58:41.633Z,16.10
2018-04-12T22:01:07.737Z,16.10
2018-04-12T22:03:33.918Z,15.20
2018-04-12T22:06:00.091Z,15.00
2018-04-12T22:08:26.321Z,15.00
2018-04-12T22:10:52.461Z,14.90
2018-04-12T22:13:19.751Z,15.10
2018-04-12T22:15:45.899Z,14.80
2018-04-12T22:18:12.014Z,15.20
2018-04-12T22:20:38.117Z,14.80
2018-04-12T22:23:04.221Z,15.40
2018-04-12T22:25:30.482Z,14.80
2018-04-12T22:27:56.710Z,14.70
2018-04-12T22:30:23.553Z,14.80
2018-04-12T22:32:49.665Z,14.80
2018-04-12T22:35:15.772Z,14.80
2018-04-12T22:37:41.859Z,14.70
2018-04-12T22:40:07.961Z,14.70
2018-04-12T22:42:34.508Z,15.00
2018-04-12T22:45:00.936Z,14.70
2018-04-12T22:47:27.828Z,14.60
2018-04-12T22:49:53.988Z,14.60
2018-04-12T22:52:20.098Z,14.60
2018-04-12T22:54:46.240Z,14.60
2018-04-12T22:57:12.437Z,14.60
2018-04-12T22:59:39.260Z,14.60
2018-04-12T23:02:06.117Z,14.50
2018-04-12T23:04:32.232Z,14.90
2018-04-12T23:06:58.402Z,14.80
2018-04-12T23:09:24.549Z,14.40
2018-04-12T23:11:50.648Z,14.60
2018-04-12T23:14:16.885Z,14.40
2018-04-12T23:16:43.776Z,14.30
2018-04-12T23:19:10.613Z,14.20
2018-04-12T23:21:36.744Z,14.20
2018-04-12T23:24:02.849Z,13.50
2018-04-12T23:26:29.076Z,14.30
2018-04-12T23:28:55.181Z,14.60
2018-04-12T23:31:23.412Z,14.10
2018-04-12T23:33:49.678Z,14.10
2018-04-12T23:36:16.576Z,14.00
2018-04-12T23:38:43.432Z,14.00
2018-04-12T23:41:09.544Z,14.10
2018-04-12T23:43:35.733Z,14.00
2018-04-12T23:46:01.890Z,14.00
2018-04-12T23:48:28.173Z,13.90
2018-04-12T23:50:55.016Z,13.80
2018-04-12T23:53:21.120Z,13.80
2018-04-12T23:55:47.229Z,13.70
2018-04-12T23:58:13.327Z,13.70
